Pagrindinis puslapis
METAR-TAF:

METAR-TAF

Oro uostai :

Wink, Teksasas, Jungtinės Amerikos Valstijos

platuma: 31-46-47N, ilguma: 103-12-05W, Aukštis: 860 m

Dabartinis oras

Ataskaita buvo paskelbta 55 minutes, ne 08:53 UTC
Vėjas 6 kt iš Rytų/Šiaurės Rytų
Temperatūra 18°C
Drėgmė 64%
Slėgis 1019 hPa
Matomumas: 16.1 km
Giedras dangus

METAR: KINK 020853Z AUTO 07006KT 10SM CLR 18/11 A3010 RMK AO2 SLP150 T01780106 52004 $

Laikas: 04:48 (09:48 UTC)

Prognozė

Ataskaita buvo paskelbta 4 valandos ir 26 minutes, ne 05:22 UTC
Prognozė galioja nuo 02 metu 06 UTC su 03 metu 06 UTC
Vėjas 11 kt iš Rytų/Pietryčių
Matomumas: 10 km
Mažai debesys ne aukštis 15000 ft

TAF: KINK 020522Z 0206/0306 12011KT P6SM FEW150

Orai ataskaitas ir orų prognozės (METAR, TAF).

turimą stotys yra geltonos ir raudonos taškus žemėlapyje.

Perkelti pele per norėdami pamatyti stoties vardą.

Tada spustelėkite, norėdami matyti oro stebėjimo ir prognozės.

Norėdami pakeisti žemėlapį: spustelėkite ant žalios mygtukų su juodo kryžiaus žemyn,; žalią mygtuką su brūkšneliu, jei norite nutolinti; arba žalių rodyklių gretimoms žemėlapius.


METAR-TAF: